sensor_id;sensor_type;location;lat;lon;timestamp;temperature;humidity
30594;DHT22;33199;47.590;8.300;2023-02-28T00:00:21;6.90;61.20
30594;DHT22;33199;47.590;8.300;2023-02-28T00:02:47;6.90;61.30
30594;DHT22;33199;47.590;8.300;2023-02-28T00:05:15;6.90;61.20
30594;DHT22;33199;47.590;8.300;2023-02-28T00:07:41;6.90;61.30
30594;DHT22;33199;47.590;8.300;2023-02-28T00:10:13;6.90;61.20
30594;DHT22;33199;47.590;8.300;2023-02-28T00:12:40;6.90;61.20
30594;DHT22;33199;47.590;8.300;2023-02-28T00:15:07;6.90;61.20
30594;DHT22;33199;47.590;8.300;2023-02-28T00:17:33;6.90;61.20
30594;DHT22;33199;47.590;8.300;2023-02-28T00:19:59;6.90;61.20
30594;DHT22;33199;47.590;8.300;2023-02-28T00:22:42;6.90;61.20
30594;DHT22;33199;47.590;8.300;2023-02-28T00:25:09;6.90;61.30
30594;DHT22;33199;47.590;8.300;2023-02-28T00:27:36;6.90;61.20
30594;DHT22;33199;47.590;8.300;2023-02-28T00:30:03;6.90;61.20
30594;DHT22;33199;47.590;8.300;2023-02-28T00:32:29;6.90;61.30
30594;DHT22;33199;47.590;8.300;2023-02-28T00:34:55;6.90;61.30
30594;DHT22;33199;47.590;8.300;2023-02-28T00:37:21;6.90;61.30
30594;DHT22;33199;47.590;8.300;2023-02-28T00:39:46;6.90;61.30
30594;DHT22;33199;47.590;8.300;2023-02-28T00:42:12;6.90;61.30
30594;DHT22;33199;47.590;8.300;2023-02-28T00:44:37;6.90;61.30
30594;DHT22;33199;47.590;8.300;2023-02-28T00:47:03;6.90;61.30
30594;DHT22;33199;47.590;8.300;2023-02-28T00:49:29;6.90;61.30
30594;DHT22;33199;47.590;8.300;2023-02-28T00:51:57;6.90;61.40
30594;DHT22;33199;47.590;8.300;2023-02-28T00:54:23;6.90;61.40
30594;DHT22;33199;47.590;8.300;2023-02-28T00:56:49;6.90;61.30
30594;DHT22;33199;47.590;8.300;2023-02-28T00:59:16;6.90;61.30
30594;DHT22;33199;47.590;8.300;2023-02-28T01:01:43;6.90;61.40
30594;DHT22;33199;47.590;8.300;2023-02-28T01:04:09;6.90;61.40
30594;DHT22;33199;47.590;8.300;2023-02-28T01:06:35;6.90;61.50
30594;DHT22;33199;47.590;8.300;2023-02-28T01:09:02;6.90;61.40
30594;DHT22;33199;47.590;8.300;2023-02-28T01:11:27;6.90;61.40
30594;DHT22;33199;47.590;8.300;2023-02-28T01:13:53;6.90;61.50
30594;DHT22;33199;47.590;8.300;2023-02-28T01:16:19;6.90;61.50
30594;DHT22;33199;47.590;8.300;2023-02-28T01:18:44;6.90;61.50
30594;DHT22;33199;47.590;8.300;2023-02-28T01:21:13;6.90;61.50
30594;DHT22;33199;47.590;8.300;2023-02-28T01:23:39;6.90;61.50
30594;DHT22;33199;47.590;8.300;2023-02-28T01:26:11;6.90;61.50
30594;DHT22;33199;47.590;8.300;2023-02-28T01:28:37;6.90;61.50
30594;DHT22;33199;47.590;8.300;2023-02-28T01:31:03;6.90;61.50
30594;DHT22;33199;47.590;8.300;2023-02-28T01:33:29;6.90;61.50
30594;DHT22;33199;47.590;8.300;2023-02-28T01:36:04;6.90;61.50
30594;DHT22;33199;47.590;8.300;2023-02-28T01:38:30;6.90;61.60
30594;DHT22;33199;47.590;8.300;2023-02-28T01:40:56;6.90;61.50
30594;DHT22;33199;47.590;8.300;2023-02-28T01:43:32;6.90;61.50
30594;DHT22;33199;47.590;8.300;2023-02-28T01:45:58;6.90;61.50
30594;DHT22;33199;47.590;8.300;2023-02-28T01:48:31;6.90;61.50
30594;DHT22;33199;47.590;8.300;2023-02-28T01:51:00;6.90;61.60
30594;DHT22;33199;47.590;8.300;2023-02-28T01:53:39;6.90;61.50
30594;DHT22;33199;47.590;8.300;2023-02-28T01:56:09;6.90;61.60
30594;DHT22;33199;47.590;8.300;2023-02-28T01:58:36;6.90;61.60
30594;DHT22;33199;47.590;8.300;2023-02-28T02:01:02;6.90;61.60
30594;DHT22;33199;47.590;8.300;2023-02-28T02:03:29;6.90;61.70
30594;DHT22;33199;47.590;8.300;2023-02-28T02:05:55;6.90;61.70
30594;DHT22;33199;47.590;8.300;2023-02-28T02:08:26;6.90;61.70
30594;DHT22;33199;47.590;8.300;2023-02-28T02:10:59;6.90;61.70
30594;DHT22;33199;47.590;8.300;2023-02-28T02:13:42;6.90;61.80
30594;DHT22;33199;47.590;8.300;2023-02-28T02:16:31;6.90;62.60
30594;DHT22;33199;47.590;8.300;2023-02-28T02:22:07;6.90;61.80
30594;DHT22;33199;47.590;8.300;2023-02-28T02:40:59;6.90;61.90
30594;DHT22;33199;47.590;8.300;2023-02-28T02:43:35;6.90;61.90
30594;DHT22;33199;47.590;8.300;2023-02-28T02:46:14;6.90;61.90
30594;DHT22;33199;47.590;8.300;2023-02-28T02:48:44;6.90;61.90
30594;DHT22;33199;47.590;8.300;2023-02-28T02:51:17;6.90;61.90
30594;DHT22;33199;47.590;8.300;2023-02-28T02:53:50;6.90;61.90
30594;DHT22;33199;47.590;8.300;2023-02-28T02:56:19;6.90;61.90
30594;DHT22;33199;47.590;8.300;2023-02-28T02:58:48;6.90;61.90
30594;DHT22;33199;47.590;8.300;2023-02-28T03:01:21;6.90;61.90
30594;DHT22;33199;47.590;8.300;2023-02-28T03:03:58;6.90;61.90
30594;DHT22;33199;47.590;8.300;2023-02-28T03:06:25;6.90;61.90
30594;DHT22;33199;47.590;8.300;2023-02-28T03:08:51;6.90;61.90
30594;DHT22;33199;47.590;8.300;2023-02-28T03:11:17;6.90;62.00
30594;DHT22;33199;47.590;8.300;2023-02-28T03:13:52;6.90;61.90
30594;DHT22;33199;47.590;8.300;2023-02-28T03:22:01;6.90;62.00
30594;DHT22;33199;47.590;8.300;2023-02-28T03:27:39;6.90;62.00
30594;DHT22;33199;47.590;8.300;2023-02-28T03:30:11;6.90;62.00
30594;DHT22;33199;47.590;8.300;2023-02-28T03:32:52;6.80;61.90
30594;DHT22;33199;47.590;8.300;2023-02-28T03:35:26;6.90;62.10
30594;DHT22;33199;47.590;8.300;2023-02-28T03:38:06;6.90;62.10
30594;DHT22;33199;47.590;8.300;2023-02-28T03:40:36;6.80;62.80
30594;DHT22;33199;47.590;8.300;2023-02-28T03:43:09;6.90;62.00
30594;DHT22;33199;47.590;8.300;2023-02-28T03:45:38;6.90;62.00
30594;DHT22;33199;47.590;8.300;2023-02-28T03:48:13;6.90;62.10
30594;DHT22;33199;47.590;8.300;2023-02-28T03:50:43;6.90;62.10
30594;DHT22;33199;47.590;8.300;2023-02-28T03:53:14;6.90;62.10
30594;DHT22;33199;47.590;8.300;2023-02-28T03:55:45;6.80;62.10
30594;DHT22;33199;47.590;8.300;2023-02-28T03:58:42;6.80;62.00
30594;DHT22;33199;47.590;8.300;2023-02-28T04:01:23;6.90;62.10
30594;DHT22;33199;47.590;8.300;2023-02-28T04:03:50;6.90;62.10
30594;DHT22;33199;47.590;8.300;2023-02-28T04:06:19;6.90;62.10
30594;DHT22;33199;47.590;8.300;2023-02-28T04:08:45;6.90;62.10
30594;DHT22;33199;47.590;8.300;2023-02-28T04:11:23;6.80;62.10
30594;DHT22;33199;47.590;8.300;2023-02-28T04:13:49;6.80;62.10
30594;DHT22;33199;47.590;8.300;2023-02-28T04:16:15;6.90;62.10
30594;DHT22;33199;47.590;8.300;2023-02-28T04:18:42;6.90;62.10
30594;DHT22;33199;47.590;8.300;2023-02-28T04:21:11;6.80;62.00
30594;DHT22;33199;47.590;8.300;2023-02-28T04:23:37;6.80;62.00
30594;DHT22;33199;47.590;8.300;2023-02-28T04:26:03;6.90;62.10
30594;DHT22;33199;47.590;8.300;2023-02-28T04:28:29;6.80;62.10
30594;DHT22;33199;47.590;8.300;2023-02-28T04:30:56;6.90;62.20
30594;DHT22;33199;47.590;8.300;2023-02-28T04:33:22;6.80;62.10
30594;DHT22;33199;47.590;8.300;2023-02-28T04:35:47;6.90;62.10
30594;DHT22;33199;47.590;8.300;2023-02-28T04:38:13;6.90;62.10
30594;DHT22;33199;47.590;8.300;2023-02-28T04:40:38;6.90;62.10
30594;DHT22;33199;47.590;8.300;2023-02-28T04:43:04;6.80;61.90
30594;DHT22;33199;47.590;8.300;2023-02-28T04:45:30;6.80;62.00
30594;DHT22;33199;47.590;8.300;2023-02-28T04:47:57;6.90;62.20
30594;DHT22;33199;47.590;8.300;2023-02-28T04:50:23;6.90;62.00
30594;DHT22;33199;47.590;8.300;2023-02-28T04:52:49;6.90;62.10
30594;DHT22;33199;47.590;8.300;2023-02-28T04:55:14;6.90;62.10
30594;DHT22;33199;47.590;8.300;2023-02-28T04:57:40;6.90;62.10
30594;DHT22;33199;47.590;8.300;2023-02-28T05:00:09;6.90;62.10
30594;DHT22;33199;47.590;8.300;2023-02-28T05:02:37;6.80;62.10
30594;DHT22;33199;47.590;8.300;2023-02-28T05:05:05;6.90;62.20
30594;DHT22;33199;47.590;8.300;2023-02-28T05:07:30;6.80;62.10
30594;DHT22;33199;47.590;8.300;2023-02-28T05:09:56;6.90;62.30
30594;DHT22;33199;47.590;8.300;2023-02-28T05:12:21;6.90;62.30
30594;DHT22;33199;47.590;8.300;2023-02-28T05:14:47;6.90;62.20
30594;DHT22;33199;47.590;8.300;2023-02-28T05:17:12;6.90;62.30
30594;DHT22;33199;47.590;8.300;2023-02-28T05:19:38;6.90;62.30
30594;DHT22;33199;47.590;8.300;2023-02-28T05:22:04;6.90;62.30
30594;DHT22;33199;47.590;8.300;2023-02-28T05:24:29;6.80;62.30
30594;DHT22;33199;47.590;8.300;2023-02-28T05:26:55;6.80;62.30
30594;DHT22;33199;47.590;8.300;2023-02-28T05:29:21;6.80;62.30
30594;DHT22;33199;47.590;8.300;2023-02-28T05:31:46;6.70;56.80
30594;DHT22;33199;47.590;8.300;2023-02-28T05:34:12;6.60;57.30
30594;DHT22;33199;47.590;8.300;2023-02-28T05:36:38;6.50;57.40
30594;DHT22;33199;47.590;8.300;2023-02-28T05:39:07;6.50;59.80
30594;DHT22;33199;47.590;8.300;2023-02-28T05:41:38;6.50;59.80
30594;DHT22;33199;47.590;8.300;2023-02-28T05:44:04;6.50;59.70
30594;DHT22;33199;47.590;8.300;2023-02-28T05:46:29;6.50;59.50
30594;DHT22;33199;47.590;8.300;2023-02-28T05:48:55;6.50;59.60
30594;DHT22;33199;47.590;8.300;2023-02-28T05:51:23;6.60;59.90
30594;DHT22;33199;47.590;8.300;2023-02-28T05:53:48;6.60;60.10
30594;DHT22;33199;47.590;8.300;2023-02-28T05:56:15;6.60;60.20
30594;DHT22;33199;47.590;8.300;2023-02-28T05:58:40;6.60;60.20
30594;DHT22;33199;47.590;8.300;2023-02-28T06:01:35;6.70;60.50
30594;DHT22;33199;47.590;8.300;2023-02-28T06:04:03;6.70;60.60
30594;DHT22;33199;47.590;8.300;2023-02-28T06:06:29;6.70;60.70
30594;DHT22;33199;47.590;8.300;2023-02-28T06:08:55;6.70;60.80
30594;DHT22;33199;47.590;8.300;2023-02-28T06:11:21;6.70;60.70
30594;DHT22;33199;47.590;8.300;2023-02-28T06:13:53;6.70;60.70
30594;DHT22;33199;47.590;8.300;2023-02-28T06:16:20;6.70;61.00
30594;DHT22;33199;47.590;8.300;2023-02-28T06:18:45;6.70;61.00
30594;DHT22;33199;47.590;8.300;2023-02-28T06:21:12;6.70;61.80
30594;DHT22;33199;47.590;8.300;2023-02-28T06:23:38;6.70;61.10
30594;DHT22;33199;47.590;8.300;2023-02-28T06:26:03;6.70;61.20
30594;DHT22;33199;47.590;8.300;2023-02-28T06:28:29;6.70;61.10
30594;DHT22;33199;47.590;8.300;2023-02-28T06:30:54;6.70;61.20
30594;DHT22;33199;47.590;8.300;2023-02-28T06:33:20;6.70;61.20
30594;DHT22;33199;47.590;8.300;2023-02-28T06:35:49;6.70;61.20
30594;DHT22;33199;47.590;8.300;2023-02-28T06:38:15;6.70;61.20
30594;DHT22;33199;47.590;8.300;2023-02-28T06:40:40;6.70;61.30
30594;DHT22;33199;47.590;8.300;2023-02-28T06:43:06;6.80;61.50
30594;DHT22;33199;47.590;8.300;2023-02-28T06:45:32;6.70;61.40
30594;DHT22;33199;47.590;8.300;2023-02-28T06:47:58;6.70;61.40
30594;DHT22;33199;47.590;8.300;2023-02-28T06:50:25;6.80;61.50
30594;DHT22;33199;47.590;8.300;2023-02-28T06:52:51;6.70;61.50
30594;DHT22;33199;47.590;8.300;2023-02-28T06:55:19;6.70;61.50
30594;DHT22;33199;47.590;8.300;2023-02-28T06:57:44;6.80;61.60
30594;DHT22;33199;47.590;8.300;2023-02-28T07:00:11;6.80;61.60
30594;DHT22;33199;47.590;8.300;2023-02-28T07:02:37;6.70;61.50
30594;DHT22;33199;47.590;8.300;2023-02-28T07:05:04;6.80;61.60
30594;DHT22;33199;47.590;8.300;2023-02-28T07:07:30;6.80;61.60
30594;DHT22;33199;47.590;8.300;2023-02-28T07:09:56;6.80;61.60
30594;DHT22;33199;47.590;8.300;2023-02-28T07:12:21;6.80;61.60
30594;DHT22;33199;47.590;8.300;2023-02-28T07:14:47;6.80;61.60
30594;DHT22;33199;47.590;8.300;2023-02-28T07:17:13;6.80;61.70
30594;DHT22;33199;47.590;8.300;2023-02-28T07:19:39;6.80;61.60
30594;DHT22;33199;47.590;8.300;2023-02-28T07:22:05;6.70;62.40
30594;DHT22;33199;47.590;8.300;2023-02-28T07:24:31;6.80;61.80
30594;DHT22;33199;47.590;8.300;2023-02-28T07:26:57;6.80;61.70
30594;DHT22;33199;47.590;8.300;2023-02-28T07:29:23;6.80;61.70
30594;DHT22;33199;47.590;8.300;2023-02-28T07:31:48;6.80;61.70
30594;DHT22;33199;47.590;8.300;2023-02-28T07:34:16;6.80;61.70
30594;DHT22;33199;47.590;8.300;2023-02-28T07:36:41;6.80;61.80
30594;DHT22;33199;47.590;8.300;2023-02-28T07:39:07;6.80;61.80
30594;DHT22;33199;47.590;8.300;2023-02-28T07:41:35;6.80;61.90
30594;DHT22;33199;47.590;8.300;2023-02-28T07:44:04;6.80;61.80
30594;DHT22;33199;47.590;8.300;2023-02-28T07:46:30;6.80;61.80
30594;DHT22;33199;47.590;8.300;2023-02-28T07:49:00;6.80;61.90
30594;DHT22;33199;47.590;8.300;2023-02-28T07:51:28;6.80;61.90
30594;DHT22;33199;47.590;8.300;2023-02-28T07:53:54;6.80;61.90
30594;DHT22;33199;47.590;8.300;2023-02-28T07:56:19;6.80;61.90
30594;DHT22;33199;47.590;8.300;2023-02-28T07:58:45;6.80;61.90
30594;DHT22;33199;47.590;8.300;2023-02-28T08:01:11;6.80;61.90
30594;DHT22;33199;47.590;8.300;2023-02-28T08:03:37;6.80;61.90
30594;DHT22;33199;47.590;8.300;2023-02-28T08:06:11;6.80;61.90
30594;DHT22;33199;47.590;8.300;2023-02-28T08:08:40;6.80;61.90
30594;DHT22;33199;47.590;8.300;2023-02-28T08:11:06;6.80;62.00
30594;DHT22;33199;47.590;8.300;2023-02-28T08:13:31;6.80;62.00
30594;DHT22;33199;47.590;8.300;2023-02-28T08:15:57;6.80;62.00
30594;DHT22;33199;47.590;8.300;2023-02-28T08:18:23;6.80;62.00
30594;DHT22;33199;47.590;8.300;2023-02-28T08:20:49;6.80;62.00
30594;DHT22;33199;47.590;8.300;2023-02-28T08:23:14;6.80;62.00
30594;DHT22;33199;47.590;8.300;2023-02-28T08:25:40;6.70;62.00
30594;DHT22;33199;47.590;8.300;2023-02-28T08:28:06;6.80;62.00
30594;DHT22;33199;47.590;8.300;2023-02-28T08:30:31;6.80;62.00
30594;DHT22;33199;47.590;8.300;2023-02-28T08:32:57;6.80;61.90
30594;DHT22;33199;47.590;8.300;2023-02-28T08:35:23;6.80;62.00
30594;DHT22;33199;47.590;8.300;2023-02-28T08:37:49;6.80;62.00
30594;DHT22;33199;47.590;8.300;2023-02-28T08:40:15;6.80;61.90
30594;DHT22;33199;47.590;8.300;2023-02-28T08:42:46;6.80;61.90
30594;DHT22;33199;47.590;8.300;2023-02-28T08:45:13;6.70;61.80
30594;DHT22;33199;47.590;8.300;2023-02-28T08:47:39;6.80;61.90
30594;DHT22;33199;47.590;8.300;2023-02-28T08:50:06;6.80;62.00
30594;DHT22;33199;47.590;8.300;2023-02-28T08:52:32;6.70;61.90
30594;DHT22;33199;47.590;8.300;2023-02-28T08:54:58;6.80;62.00
30594;DHT22;33199;47.590;8.300;2023-02-28T08:57:24;6.80;61.90
30594;DHT22;33199;47.590;8.300;2023-02-28T08:59:52;6.80;61.90
30594;DHT22;33199;47.590;8.300;2023-02-28T09:02:18;6.70;62.00
30594;DHT22;33199;47.590;8.300;2023-02-28T09:04:44;6.70;57.90
30594;DHT22;33199;47.590;8.300;2023-02-28T09:07:12;6.60;57.00
30594;DHT22;33199;47.590;8.300;2023-02-28T09:09:38;6.50;57.50
30594;DHT22;33199;47.590;8.300;2023-02-28T09:12:19;6.50;59.10
30594;DHT22;33199;47.590;8.300;2023-02-28T09:14:45;6.50;59.30
30594;DHT22;33199;47.590;8.300;2023-02-28T09:17:11;6.60;59.50
30594;DHT22;33199;47.590;8.300;2023-02-28T09:19:36;6.50;59.50
30594;DHT22;33199;47.590;8.300;2023-02-28T09:22:02;6.50;60.30
30594;DHT22;33199;47.590;8.300;2023-02-28T09:24:27;6.50;59.80
30594;DHT22;33199;47.590;8.300;2023-02-28T09:26:53;6.60;60.00
30594;DHT22;33199;47.590;8.300;2023-02-28T09:29:19;6.60;59.90
30594;DHT22;33199;47.590;8.300;2023-02-28T09:31:44;6.60;60.00
30594;DHT22;33199;47.590;8.300;2023-02-28T09:34:10;6.60;60.10
30594;DHT22;33199;47.590;8.300;2023-02-28T09:36:36;6.60;60.20
30594;DHT22;33199;47.590;8.300;2023-02-28T09:39:04;6.60;60.20
30594;DHT22;33199;47.590;8.300;2023-02-28T09:41:40;6.60;60.40
30594;DHT22;33199;47.590;8.300;2023-02-28T09:44:42;6.60;60.50
30594;DHT22;33199;47.590;8.300;2023-02-28T09:47:25;6.60;60.60
30594;DHT22;33199;47.590;8.300;2023-02-28T09:49:52;6.60;60.60
30594;DHT22;33199;47.590;8.300;2023-02-28T09:52:21;6.70;60.70
30594;DHT22;33199;47.590;8.300;2023-02-28T09:54:47;6.60;60.60
30594;DHT22;33199;47.590;8.300;2023-02-28T09:57:32;6.70;60.70
30594;DHT22;33199;47.590;8.300;2023-02-28T10:05:41;6.70;60.70
30594;DHT22;33199;47.590;8.300;2023-02-28T10:10:41;6.70;60.90
30594;DHT22;33199;47.590;8.300;2023-02-28T10:16:12;6.70;61.00
30594;DHT22;33199;47.590;8.300;2023-02-28T10:18:52;6.70;61.10
30594;DHT22;33199;47.590;8.300;2023-02-28T10:21:23;6.70;61.10
30594;DHT22;33199;47.590;8.300;2023-02-28T10:24:14;6.70;61.20
30594;DHT22;33199;47.590;8.300;2023-02-28T10:26:43;6.70;61.10
30594;DHT22;33199;47.590;8.300;2023-02-28T10:29:10;6.70;61.20
30594;DHT22;33199;47.590;8.300;2023-02-28T10:31:36;6.70;61.20
30594;DHT22;33199;47.590;8.300;2023-02-28T10:34:02;6.70;61.20
30594;DHT22;33199;47.590;8.300;2023-02-28T10:36:29;6.70;61.20
30594;DHT22;33199;47.590;8.300;2023-02-28T10:38:55;6.70;61.20
30594;DHT22;33199;47.590;8.300;2023-02-28T10:41:31;6.70;61.10
30594;DHT22;33199;47.590;8.300;2023-02-28T10:44:21;6.70;61.20
30594;DHT22;33199;47.590;8.300;2023-02-28T10:46:48;6.70;61.20
30594;DHT22;33199;47.590;8.300;2023-02-28T10:49:20;6.70;61.20
30594;DHT22;33199;47.590;8.300;2023-02-28T10:51:47;6.70;61.20
30594;DHT22;33199;47.590;8.300;2023-02-28T10:54:30;6.70;61.30
30594;DHT22;33199;47.590;8.300;2023-02-28T10:57:17;6.70;61.30
30594;DHT22;33199;47.590;8.300;2023-02-28T10:59:43;6.70;61.30
30594;DHT22;33199;47.590;8.300;2023-02-28T11:04:58;6.70;61.40
30594;DHT22;33199;47.590;8.300;2023-02-28T11:07:25;6.70;61.40
30594;DHT22;33199;47.590;8.300;2023-02-28T11:09:53;6.70;61.30
30594;DHT22;33199;47.590;8.300;2023-02-28T11:12:36;6.70;61.40
30594;DHT22;33199;47.590;8.300;2023-02-28T11:18:24;6.70;61.50
30594;DHT22;33199;47.590;8.300;2023-02-28T11:20:54;6.70;61.90
30594;DHT22;33199;47.590;8.300;2023-02-28T11:23:21;6.70;61.40
30594;DHT22;33199;47.590;8.300;2023-02-28T11:25:51;6.70;61.50
30594;DHT22;33199;47.590;8.300;2023-02-28T11:28:34;6.70;61.60
30594;DHT22;33199;47.590;8.300;2023-02-28T11:36:24;6.70;61.50
30594;DHT22;33199;47.590;8.300;2023-02-28T11:38:51;6.70;61.60
30594;DHT22;33199;47.590;8.300;2023-02-28T11:41:22;6.70;61.50
30594;DHT22;33199;47.590;8.300;2023-02-28T11:46:59;6.70;61.60
30594;DHT22;33199;47.590;8.300;2023-02-28T11:49:43;6.70;61.60
30594;DHT22;33199;47.590;8.300;2023-02-28T11:57:47;6.30;57.10
30594;DHT22;33199;47.590;8.300;2023-02-28T12:06:13;6.30;58.70
30594;DHT22;33199;47.590;8.300;2023-02-28T12:11:43;6.40;59.30
30594;DHT22;33199;47.590;8.300;2023-02-28T12:17:34;6.40;59.20
30594;DHT22;33199;47.590;8.300;2023-02-28T12:28:15;6.50;60.30
30594;DHT22;33199;47.590;8.300;2023-02-28T12:33:31;6.50;59.90
30594;DHT22;33199;47.590;8.300;2023-02-28T12:36:03;6.60;60.00
30594;DHT22;33199;47.590;8.300;2023-02-28T12:38:48;6.50;60.00
30594;DHT22;33199;47.590;8.300;2023-02-28T12:41:34;6.50;60.00
30594;DHT22;33199;47.590;8.300;2023-02-28T12:44:06;6.60;60.20
30594;DHT22;33199;47.590;8.300;2023-02-28T12:46:41;6.60;60.30
30594;DHT22;33199;47.590;8.300;2023-02-28T12:49:15;6.60;60.40
30594;DHT22;33199;47.590;8.300;2023-02-28T12:51:43;6.60;60.50
30594;DHT22;33199;47.590;8.300;2023-02-28T12:59:38;6.60;60.60
30594;DHT22;33199;47.590;8.300;2023-02-28T13:10:50;6.60;60.70
30594;DHT22;33199;47.590;8.300;2023-02-28T13:13:27;6.60;60.90
30594;DHT22;33199;47.590;8.300;2023-02-28T13:16:04;6.60;60.90
30594;DHT22;33199;47.590;8.300;2023-02-28T13:18:44;6.60;61.00
30594;DHT22;33199;47.590;8.300;2023-02-28T13:21:23;6.60;61.80
30594;DHT22;33199;47.590;8.300;2023-02-28T13:29:21;6.70;61.10
30594;DHT22;33199;47.590;8.300;2023-02-28T13:34:41;6.70;61.10
30594;DHT22;33199;47.590;8.300;2023-02-28T13:39:55;6.70;61.10
30594;DHT22;33199;47.590;8.300;2023-02-28T13:42:36;6.70;61.30
30594;DHT22;33199;47.590;8.300;2023-02-28T13:47:38;6.70;61.40
30594;DHT22;33199;47.590;8.300;2023-02-28T14:06:34;6.70;61.40
30594;DHT22;33199;47.590;8.300;2023-02-28T14:11:32;6.70;61.40
30594;DHT22;33199;47.590;8.300;2023-02-28T14:13:59;6.70;61.60
30594;DHT22;33199;47.590;8.300;2023-02-28T14:16:40;6.70;61.60
30594;DHT22;33199;47.590;8.300;2023-02-28T14:19:20;6.70;62.20
30594;DHT22;33199;47.590;8.300;2023-02-28T14:22:25;6.70;61.50
30594;DHT22;33199;47.590;8.300;2023-02-28T14:25:08;6.70;61.80
30594;DHT22;33199;47.590;8.300;2023-02-28T14:27:37;6.70;61.60
30594;DHT22;33199;47.590;8.300;2023-02-28T14:30:29;6.70;61.70
30594;DHT22;33199;47.590;8.300;2023-02-28T14:38:33;6.70;61.80
30594;DHT22;33199;47.590;8.300;2023-02-28T14:41:04;6.70;61.80
30594;DHT22;33199;47.590;8.300;2023-02-28T14:43:31;6.70;61.80
30594;DHT22;33199;47.590;8.300;2023-02-28T14:46:00;6.70;61.80
30594;DHT22;33199;47.590;8.300;2023-02-28T14:48:26;6.70;62.50
30594;DHT22;33199;47.590;8.300;2023-02-28T14:50:57;6.70;61.70
30594;DHT22;33199;47.590;8.300;2023-02-28T14:53:27;6.70;61.80
30594;DHT22;33199;47.590;8.300;2023-02-28T14:55:54;6.70;61.60
30594;DHT22;33199;47.590;8.300;2023-02-28T14:58:31;6.70;61.80
30594;DHT22;33199;47.590;8.300;2023-02-28T15:01:01;6.70;61.80
30594;DHT22;33199;47.590;8.300;2023-02-28T15:03:33;6.70;61.80
30594;DHT22;33199;47.590;8.300;2023-02-28T15:06:04;6.70;61.80
30594;DHT22;33199;47.590;8.300;2023-02-28T15:08:31;6.70;61.80
30594;DHT22;33199;47.590;8.300;2023-02-28T15:11:04;6.70;61.80
30594;DHT22;33199;47.590;8.300;2023-02-28T15:14:02;6.80;61.90
30594;DHT22;33199;47.590;8.300;2023-02-28T15:19:00;6.80;61.90
30594;DHT22;33199;47.590;8.300;2023-02-28T15:21:34;6.70;61.90
30594;DHT22;33199;47.590;8.300;2023-02-28T15:26:39;6.70;61.80
30594;DHT22;33199;47.590;8.300;2023-02-28T15:29:13;6.70;61.90
30594;DHT22;33199;47.590;8.300;2023-02-28T15:31:44;6.70;61.90
30594;DHT22;33199;47.590;8.300;2023-02-28T15:34:19;6.60;57.10
30594;DHT22;33199;47.590;8.300;2023-02-28T15:36:46;6.50;58.60
30594;DHT22;33199;47.590;8.300;2023-02-28T15:39:21;6.50;59.50
30594;DHT22;33199;47.590;8.300;2023-02-28T15:41:47;6.50;59.70
30594;DHT22;33199;47.590;8.300;2023-02-28T15:44:30;6.50;59.70
30594;DHT22;33199;47.590;8.300;2023-02-28T15:47:02;6.60;59.70
30594;DHT22;33199;47.590;8.300;2023-02-28T15:49:30;6.70;60.10
30594;DHT22;33199;47.590;8.300;2023-02-28T15:51:59;6.70;60.00
30594;DHT22;33199;47.590;8.300;2023-02-28T15:54:32;6.70;60.10
30594;DHT22;33199;47.590;8.300;2023-02-28T15:57:05;6.80;60.20
30594;DHT22;33199;47.590;8.300;2023-02-28T15:59:36;6.80;60.20
30594;DHT22;33199;47.590;8.300;2023-02-28T16:02:15;6.80;60.20
30594;DHT22;33199;47.590;8.300;2023-02-28T16:05:28;6.90;60.20
30594;DHT22;33199;47.590;8.300;2023-02-28T16:07:57;6.90;60.40
30594;DHT22;33199;47.590;8.300;2023-02-28T16:10:25;6.90;60.40
30594;DHT22;33199;47.590;8.300;2023-02-28T16:12:53;6.90;60.40
30594;DHT22;33199;47.590;8.300;2023-02-28T16:15:25;7.00;60.50
30594;DHT22;33199;47.590;8.300;2023-02-28T16:17:52;7.00;60.50
30594;DHT22;33199;47.590;8.300;2023-02-28T16:20:27;7.00;60.50
30594;DHT22;33199;47.590;8.300;2023-02-28T16:22:53;7.00;60.50
30594;DHT22;33199;47.590;8.300;2023-02-28T16:25:23;7.00;60.60
30594;DHT22;33199;47.590;8.300;2023-02-28T16:27:51;7.00;60.60
30594;DHT22;33199;47.590;8.300;2023-02-28T16:30:24;7.00;60.60
30594;DHT22;33199;47.590;8.300;2023-02-28T16:32:51;7.10;60.60
30594;DHT22;33199;47.590;8.300;2023-02-28T16:35:18;7.10;60.70
30594;DHT22;33199;47.590;8.300;2023-02-28T16:37:44;7.10;60.70
30594;DHT22;33199;47.590;8.300;2023-02-28T16:40:18;7.10;60.70
30594;DHT22;33199;47.590;8.300;2023-02-28T16:42:47;7.10;60.80
30594;DHT22;33199;47.590;8.300;2023-02-28T16:45:18;7.10;60.90
30594;DHT22;33199;47.590;8.300;2023-02-28T16:47:45;7.10;60.90
30594;DHT22;33199;47.590;8.300;2023-02-28T16:50:20;7.10;60.90
30594;DHT22;33199;47.590;8.300;2023-02-28T16:52:46;7.10;60.90
30594;DHT22;33199;47.590;8.300;2023-02-28T16:55:12;7.10;60.90
30594;DHT22;33199;47.590;8.300;2023-02-28T16:57:38;7.10;60.90
30594;DHT22;33199;47.590;8.300;2023-02-28T17:00:05;7.10;60.90
30594;DHT22;33199;47.590;8.300;2023-02-28T17:02:33;7.20;61.00
30594;DHT22;33199;47.590;8.300;2023-02-28T17:04:59;7.20;61.00
30594;DHT22;33199;47.590;8.300;2023-02-28T17:07:24;7.20;61.00
30594;DHT22;33199;47.590;8.300;2023-02-28T17:09:50;7.20;61.00
30594;DHT22;33199;47.590;8.300;2023-02-28T17:12:16;7.20;61.00
30594;DHT22;33199;47.590;8.300;2023-02-28T17:14:41;7.20;61.00
30594;DHT22;33199;47.590;8.300;2023-02-28T17:17:09;7.20;61.00
30594;DHT22;33199;47.590;8.300;2023-02-28T17:19:35;7.20;61.10
30594;DHT22;33199;47.590;8.300;2023-02-28T17:22:01;7.20;61.00
30594;DHT22;33199;47.590;8.300;2023-02-28T17:24:28;7.20;61.90
30594;DHT22;33199;47.590;8.300;2023-02-28T17:26:54;7.20;61.20
30594;DHT22;33199;47.590;8.300;2023-02-28T17:29:20;7.20;61.20
30594;DHT22;33199;47.590;8.300;2023-02-28T17:31:47;7.20;61.20
30594;DHT22;33199;47.590;8.300;2023-02-28T17:34:13;7.20;61.20
30594;DHT22;33199;47.590;8.300;2023-02-28T17:36:44;7.20;61.20
30594;DHT22;33199;47.590;8.300;2023-02-28T17:39:12;7.20;61.10
30594;DHT22;33199;47.590;8.300;2023-02-28T17:41:40;7.20;61.10
30594;DHT22;33199;47.590;8.300;2023-02-28T17:44:06;7.20;61.10
30594;DHT22;33199;47.590;8.300;2023-02-28T17:46:32;7.20;61.30
30594;DHT22;33199;47.590;8.300;2023-02-28T17:48:57;7.20;61.30
30594;DHT22;33199;47.590;8.300;2023-02-28T17:51:24;7.20;61.30
30594;DHT22;33199;47.590;8.300;2023-02-28T17:53:49;7.20;61.40
30594;DHT22;33199;47.590;8.300;2023-02-28T17:56:20;7.20;61.40
30594;DHT22;33199;47.590;8.300;2023-02-28T17:58:46;7.20;61.40
30594;DHT22;33199;47.590;8.300;2023-02-28T18:01:12;7.20;61.30
30594;DHT22;33199;47.590;8.300;2023-02-28T18:03:38;7.20;61.30
30594;DHT22;33199;47.590;8.300;2023-02-28T18:06:04;7.20;61.30
30594;DHT22;33199;47.590;8.300;2023-02-28T18:08:30;7.20;61.30
30594;DHT22;33199;47.590;8.300;2023-02-28T18:10:58;7.20;61.30
30594;DHT22;33199;47.590;8.300;2023-02-28T18:13:24;7.20;61.40
30594;DHT22;33199;47.590;8.300;2023-02-28T18:15:50;7.20;59.50
30594;DHT22;33199;47.590;8.300;2023-02-28T18:18:15;7.00;55.90